sensor_id;sensor_type;location;lat;lon;timestamp;temperature;humidity
20862;DHT22;10591;52.532;13.348;2022-07-04T00:01:39;21.25;63.54
20862;DHT22;10591;52.532;13.348;2022-07-04T00:04:10;21.19;63.90
20862;DHT22;10591;52.532;13.348;2022-07-04T00:06:40;21.16;64.19
20862;DHT22;10591;52.532;13.348;2022-07-04T00:09:11;21.11;64.39
20862;DHT22;10591;52.532;13.348;2022-07-04T00:11:42;21.03;64.64
20862;DHT22;10591;52.532;13.348;2022-07-04T00:14:12;20.97;64.89
20862;DHT22;10591;52.532;13.348;2022-07-04T00:16:43;20.96;64.86
20862;DHT22;10591;52.532;13.348;2022-07-04T00:19:13;20.86;65.04
20862;DHT22;10591;52.532;13.348;2022-07-04T00:21:44;20.78;65.37
20862;DHT22;10591;52.532;13.348;2022-07-04T00:24:15;20.68;65.68
20862;DHT22;10591;52.532;13.348;2022-07-04T00:26:45;20.63;65.99
20862;DHT22;10591;52.532;13.348;2022-07-04T00:29:16;20.60;66.15
20862;DHT22;10591;52.532;13.348;2022-07-04T00:31:46;20.48;66.56
20862;DHT22;10591;52.532;13.348;2022-07-04T00:34:17;20.36;67.03
20862;DHT22;10591;52.532;13.348;2022-07-04T00:36:48;20.38;67.26
20862;DHT22;10591;52.532;13.348;2022-07-04T00:39:19;20.40;67.09
20862;DHT22;10591;52.532;13.348;2022-07-04T00:41:49;20.35;67.57
20862;DHT22;10591;52.532;13.348;2022-07-04T00:44:20;20.33;67.62
20862;DHT22;10591;52.532;13.348;2022-07-04T00:46:50;20.26;67.92
20862;DHT22;10591;52.532;13.348;2022-07-04T00:49:21;20.28;67.81
20862;DHT22;10591;52.532;13.348;2022-07-04T00:51:52;20.26;68.03
20862;DHT22;10591;52.532;13.348;2022-07-04T00:54:28;20.13;68.43
20862;DHT22;10591;52.532;13.348;2022-07-04T00:56:59;20.07;68.73
20862;DHT22;10591;52.532;13.348;2022-07-04T00:59:30;20.09;68.68
20862;DHT22;10591;52.532;13.348;2022-07-04T01:02:01;20.02;69.14
20862;DHT22;10591;52.532;13.348;2022-07-04T01:04:32;20.03;69.26
20862;DHT22;10591;52.532;13.348;2022-07-04T01:07:03;19.96;69.53
20862;DHT22;10591;52.532;13.348;2022-07-04T01:09:35;19.87;69.93
20862;DHT22;10591;52.532;13.348;2022-07-04T01:12:06;19.84;70.17
20862;DHT22;10591;52.532;13.348;2022-07-04T01:14:38;19.72;70.63
20862;DHT22;10591;52.532;13.348;2022-07-04T01:17:08;19.71;70.73
20862;DHT22;10591;52.532;13.348;2022-07-04T01:19:39;19.68;70.87
20862;DHT22;10591;52.532;13.348;2022-07-04T01:22:10;19.62;71.11
20862;DHT22;10591;52.532;13.348;2022-07-04T01:24:42;19.56;71.40
20862;DHT22;10591;52.532;13.348;2022-07-04T01:27:13;19.55;71.48
20862;DHT22;10591;52.532;13.348;2022-07-04T01:29:44;19.49;71.63
20862;DHT22;10591;52.532;13.348;2022-07-04T01:32:15;19.48;71.77
20862;DHT22;10591;52.532;13.348;2022-07-04T01:34:46;19.38;72.35
20862;DHT22;10591;52.532;13.348;2022-07-04T01:37:18;19.45;72.31
20862;DHT22;10591;52.532;13.348;2022-07-04T01:39:48;19.36;72.89
20862;DHT22;10591;52.532;13.348;2022-07-04T01:42:19;19.29;73.40
20862;DHT22;10591;52.532;13.348;2022-07-04T01:44:49;19.16;74.02
20862;DHT22;10591;52.532;13.348;2022-07-04T01:47:20;19.11;74.45
20862;DHT22;10591;52.532;13.348;2022-07-04T01:49:51;19.06;74.89
20862;DHT22;10591;52.532;13.348;2022-07-04T01:52:21;19.02;75.81
20862;DHT22;10591;52.532;13.348;2022-07-04T01:54:52;18.89;76.29
20862;DHT22;10591;52.532;13.348;2022-07-04T01:57:23;18.78;77.11
20862;DHT22;10591;52.532;13.348;2022-07-04T01:59:54;18.75;77.21
20862;DHT22;10591;52.532;13.348;2022-07-04T02:02:42;18.68;77.88
20862;DHT22;10591;52.532;13.348;2022-07-04T02:05:13;18.60;78.49
20862;DHT22;10591;52.532;13.348;2022-07-04T02:07:44;18.63;78.44
20862;DHT22;10591;52.532;13.348;2022-07-04T02:10:15;18.64;78.60
20862;DHT22;10591;52.532;13.348;2022-07-04T02:12:46;18.56;78.79
20862;DHT22;10591;52.532;13.348;2022-07-04T02:15:35;18.44;79.33
20862;DHT22;10591;52.532;13.348;2022-07-04T02:18:08;18.35;79.93
20862;DHT22;10591;52.532;13.348;2022-07-04T02:20:38;18.33;80.08
20862;DHT22;10591;52.532;13.348;2022-07-04T02:23:09;18.21;80.64
20862;DHT22;10591;52.532;13.348;2022-07-04T02:25:39;18.18;80.76
20862;DHT22;10591;52.532;13.348;2022-07-04T02:28:10;18.12;80.91
20862;DHT22;10591;52.532;13.348;2022-07-04T02:30:40;18.08;81.15
20862;DHT22;10591;52.532;13.348;2022-07-04T02:33:11;18.05;81.09
20862;DHT22;10591;52.532;13.348;2022-07-04T02:35:43;18.05;81.24
20862;DHT22;10591;52.532;13.348;2022-07-04T02:38:14;18.06;81.30
20862;DHT22;10591;52.532;13.348;2022-07-04T02:40:44;18.05;81.39
20862;DHT22;10591;52.532;13.348;2022-07-04T02:43:15;18.02;81.56
20862;DHT22;10591;52.532;13.348;2022-07-04T02:45:45;18.02;81.54
20862;DHT22;10591;52.532;13.348;2022-07-04T02:48:17;18.00;81.66
20862;DHT22;10591;52.532;13.348;2022-07-04T02:50:48;18.07;81.37
20862;DHT22;10591;52.532;13.348;2022-07-04T02:53:18;18.05;81.44
20862;DHT22;10591;52.532;13.348;2022-07-04T02:55:49;18.13;81.24
20862;DHT22;10591;52.532;13.348;2022-07-04T02:58:19;18.06;81.57
20862;DHT22;10591;52.532;13.348;2022-07-04T03:00:50;18.05;81.49
20862;DHT22;10591;52.532;13.348;2022-07-04T03:03:21;18.00;81.74
20862;DHT22;10591;52.532;13.348;2022-07-04T03:05:52;17.96;81.88
20862;DHT22;10591;52.532;13.348;2022-07-04T03:08:23;17.90;82.19
20862;DHT22;10591;52.532;13.348;2022-07-04T03:10:53;17.93;81.97
20862;DHT22;10591;52.532;13.348;2022-07-04T03:13:24;17.85;82.30
20862;DHT22;10591;52.532;13.348;2022-07-04T03:15:55;17.82;82.40
20862;DHT22;10591;52.532;13.348;2022-07-04T03:18:26;17.80;82.47
20862;DHT22;10591;52.532;13.348;2022-07-04T03:20:56;17.87;82.16
20862;DHT22;10591;52.532;13.348;2022-07-04T03:23:27;17.83;82.33
20862;DHT22;10591;52.532;13.348;2022-07-04T03:25:58;17.98;82.03
20862;DHT22;10591;52.532;13.348;2022-07-04T03:28:28;17.90;82.27
20862;DHT22;10591;52.532;13.348;2022-07-04T03:30:59;18.03;82.00
20862;DHT22;10591;52.532;13.348;2022-07-04T03:33:30;17.79;82.74
20862;DHT22;10591;52.532;13.348;2022-07-04T03:36:00;17.83;82.68
20862;DHT22;10591;52.532;13.348;2022-07-04T03:38:31;17.94;82.25
20862;DHT22;10591;52.532;13.348;2022-07-04T03:41:01;17.90;82.35
20862;DHT22;10591;52.532;13.348;2022-07-04T03:43:34;17.87;82.71
20862;DHT22;10591;52.532;13.348;2022-07-04T03:46:06;17.95;82.28
20862;DHT22;10591;52.532;13.348;2022-07-04T03:48:37;17.90;82.52
20862;DHT22;10591;52.532;13.348;2022-07-04T03:51:08;17.94;82.48
20862;DHT22;10591;52.532;13.348;2022-07-04T03:53:38;18.08;82.26
20862;DHT22;10591;52.532;13.348;2022-07-04T03:56:09;18.08;82.05
20862;DHT22;10591;52.532;13.348;2022-07-04T03:58:40;18.08;81.96
20862;DHT22;10591;52.532;13.348;2022-07-04T04:01:12;18.17;81.55
20862;DHT22;10591;52.532;13.348;2022-07-04T04:03:43;18.19;81.47
20862;DHT22;10591;52.532;13.348;2022-07-04T04:06:31;18.24;81.44
20862;DHT22;10591;52.532;13.348;2022-07-04T04:09:02;18.40;80.82
20862;DHT22;10591;52.532;13.348;2022-07-04T04:11:35;18.46;80.57
20862;DHT22;10591;52.532;13.348;2022-07-04T04:14:06;18.68;79.88
20862;DHT22;10591;52.532;13.348;2022-07-04T04:16:37;18.68;79.54
20862;DHT22;10591;52.532;13.348;2022-07-04T04:19:07;18.78;79.26
20862;DHT22;10591;52.532;13.348;2022-07-04T04:21:38;18.77;79.02
20862;DHT22;10591;52.532;13.348;2022-07-04T04:24:09;18.72;79.27
20862;DHT22;10591;52.532;13.348;2022-07-04T04:26:40;18.64;79.69
20862;DHT22;10591;52.532;13.348;2022-07-04T04:29:11;18.54;79.97
20862;DHT22;10591;52.532;13.348;2022-07-04T04:31:41;18.48;79.97
20862;DHT22;10591;52.532;13.348;2022-07-04T04:34:12;18.48;80.19
20862;DHT22;10591;52.532;13.348;2022-07-04T04:36:42;18.58;79.67
20862;DHT22;10591;52.532;13.348;2022-07-04T04:39:13;18.65;79.56
20862;DHT22;10591;52.532;13.348;2022-07-04T04:41:44;18.70;79.32
20862;DHT22;10591;52.532;13.348;2022-07-04T04:44:15;18.87;78.75
20862;DHT22;10591;52.532;13.348;2022-07-04T04:46:47;18.86;78.70
20862;DHT22;10591;52.532;13.348;2022-07-04T04:49:17;19.11;77.63
20862;DHT22;10591;52.532;13.348;2022-07-04T04:51:48;19.27;77.54
20862;DHT22;10591;52.532;13.348;2022-07-04T04:54:18;19.22;77.21
20862;DHT22;10591;52.532;13.348;2022-07-04T04:56:49;19.65;75.81
20862;DHT22;10591;52.532;13.348;2022-07-04T04:59:20;20.67;72.57
20862;DHT22;10591;52.532;13.348;2022-07-04T05:01:50;20.83;71.39
20862;DHT22;10591;52.532;13.348;2022-07-04T05:04:21;20.22;72.71
20862;DHT22;10591;52.532;13.348;2022-07-04T05:06:52;20.18;73.16
20862;DHT22;10591;52.532;13.348;2022-07-04T05:09:22;20.76;71.41
20862;DHT22;10591;52.532;13.348;2022-07-04T05:11:53;20.59;71.07
20862;DHT22;10591;52.532;13.348;2022-07-04T05:14:24;21.58;68.56
20862;DHT22;10591;52.532;13.348;2022-07-04T05:16:55;22.08;66.49
20862;DHT22;10591;52.532;13.348;2022-07-04T05:19:26;21.58;67.81
20862;DHT22;10591;52.532;13.348;2022-07-04T05:21:56;21.40;68.52
20862;DHT22;10591;52.532;13.348;2022-07-04T05:24:27;21.45;68.76
20862;DHT22;10591;52.532;13.348;2022-07-04T05:26:57;21.12;68.67
20862;DHT22;10591;52.532;13.348;2022-07-04T05:29:28;20.72;69.94
20862;DHT22;10591;52.532;13.348;2022-07-04T05:31:59;20.27;71.31
20862;DHT22;10591;52.532;13.348;2022-07-04T05:34:30;20.09;72.24
20862;DHT22;10591;52.532;13.348;2022-07-04T05:37:01;20.00;72.39
20862;DHT22;10591;52.532;13.348;2022-07-04T05:39:32;21.66;66.85
20862;DHT22;10591;52.532;13.348;2022-07-04T05:42:02;23.75;61.48
20862;DHT22;10591;52.532;13.348;2022-07-04T05:44:33;26.50;54.48
20862;DHT22;10591;52.532;13.348;2022-07-04T05:47:03;27.45;50.39
20862;DHT22;10591;52.532;13.348;2022-07-04T05:49:34;27.55;49.65
20862;DHT22;10591;52.532;13.348;2022-07-04T05:52:06;27.98;48.86
20862;DHT22;10591;52.532;13.348;2022-07-04T05:54:36;28.53;47.31
20862;DHT22;10591;52.532;13.348;2022-07-04T05:57:08;27.76;48.47
20862;DHT22;10591;52.532;13.348;2022-07-04T05:59:39;28.01;47.65
20862;DHT22;10591;52.532;13.348;2022-07-04T06:02:10;27.81;48.68
20862;DHT22;10591;52.532;13.348;2022-07-04T06:04:40;28.14;47.73
20862;DHT22;10591;52.532;13.348;2022-07-04T06:07:13;29.00;45.95
20862;DHT22;10591;52.532;13.348;2022-07-04T06:09:43;28.33;46.64
20862;DHT22;10591;52.532;13.348;2022-07-04T06:12:14;28.59;44.93
20862;DHT22;10591;52.532;13.348;2022-07-04T06:14:45;29.12;44.70
20862;DHT22;10591;52.532;13.348;2022-07-04T06:17:17;30.62;41.51
20862;DHT22;10591;52.532;13.348;2022-07-04T06:19:47;30.07;42.00
20862;DHT22;10591;52.532;13.348;2022-07-04T06:22:18;30.14;41.53
20862;DHT22;10591;52.532;13.348;2022-07-04T06:24:50;30.82;41.08
20862;DHT22;10591;52.532;13.348;2022-07-04T06:27:21;32.07;38.80
20862;DHT22;10591;52.532;13.348;2022-07-04T06:29:52;32.70;37.36
20862;DHT22;10591;52.532;13.348;2022-07-04T06:32:22;32.08;36.74
20862;DHT22;10591;52.532;13.348;2022-07-04T06:34:54;31.13;38.39
20862;DHT22;10591;52.532;13.348;2022-07-04T06:37:43;29.50;41.39
20862;DHT22;10591;52.532;13.348;2022-07-04T06:40:13;29.24;41.02
20862;DHT22;10591;52.532;13.348;2022-07-04T06:42:45;28.94;41.60
20862;DHT22;10591;52.532;13.348;2022-07-04T06:45:16;30.60;39.73
20862;DHT22;10591;52.532;13.348;2022-07-04T06:47:46;30.07;39.32
20862;DHT22;10591;52.532;13.348;2022-07-04T06:50:17;31.06;38.25
20862;DHT22;10591;52.532;13.348;2022-07-04T06:52:49;29.73;39.49
20862;DHT22;10591;52.532;13.348;2022-07-04T06:55:36;29.89;40.07
20862;DHT22;10591;52.532;13.348;2022-07-04T06:58:07;28.75;40.77
20862;DHT22;10591;52.532;13.348;2022-07-04T07:00:38;28.04;42.25
20862;DHT22;10591;52.532;13.348;2022-07-04T07:03:11;27.79;42.63
20862;DHT22;10591;52.532;13.348;2022-07-04T07:05:41;27.81;43.23
20862;DHT22;10591;52.532;13.348;2022-07-04T07:08:13;26.38;46.14
20862;DHT22;10591;52.532;13.348;2022-07-04T07:10:44;24.41;49.28
20862;DHT22;10591;52.532;13.348;2022-07-04T07:13:14;23.92;50.86
20862;DHT22;10591;52.532;13.348;2022-07-04T07:15:45;23.64;52.56
20862;DHT22;10591;52.532;13.348;2022-07-04T07:18:16;23.08;53.12
20862;DHT22;10591;52.532;13.348;2022-07-04T07:20:46;22.84;54.71
20862;DHT22;10591;52.532;13.348;2022-07-04T07:23:17;23.25;53.52
20862;DHT22;10591;52.532;13.348;2022-07-04T07:25:48;23.88;52.16
20862;DHT22;10591;52.532;13.348;2022-07-04T07:28:18;24.48;50.52
20862;DHT22;10591;52.532;13.348;2022-07-04T07:30:49;24.38;50.47
20862;DHT22;10591;52.532;13.348;2022-07-04T07:33:20;23.99;51.25
20862;DHT22;10591;52.532;13.348;2022-07-04T07:35:51;23.25;52.45
20862;DHT22;10591;52.532;13.348;2022-07-04T07:38:21;22.46;54.54
20862;DHT22;10591;52.532;13.348;2022-07-04T07:40:52;22.52;54.45
20862;DHT22;10591;52.532;13.348;2022-07-04T07:43:23;22.03;56.27
20862;DHT22;10591;52.532;13.348;2022-07-04T07:45:54;21.80;57.19
20862;DHT22;10591;52.532;13.348;2022-07-04T07:48:25;21.72;57.81
20862;DHT22;10591;52.532;13.348;2022-07-04T07:50:57;21.98;56.97
20862;DHT22;10591;52.532;13.348;2022-07-04T07:53:28;22.30;55.41
20862;DHT22;10591;52.532;13.348;2022-07-04T07:56:06;22.26;54.97
20862;DHT22;10591;52.532;13.348;2022-07-04T07:58:38;22.26;55.00
20862;DHT22;10591;52.532;13.348;2022-07-04T08:01:08;22.08;54.98
20862;DHT22;10591;52.532;13.348;2022-07-04T08:03:39;21.90;55.01
20862;DHT22;10591;52.532;13.348;2022-07-04T08:06:28;21.95;54.06
20862;DHT22;10591;52.532;13.348;2022-07-04T08:08:59;22.00;54.16
20862;DHT22;10591;52.532;13.348;2022-07-04T08:11:30;21.62;54.60
20862;DHT22;10591;52.532;13.348;2022-07-04T08:14:00;21.41;55.34
20862;DHT22;10591;52.532;13.348;2022-07-04T08:16:31;21.34;56.13
20862;DHT22;10591;52.532;13.348;2022-07-04T08:19:03;21.17;57.00
20862;DHT22;10591;52.532;13.348;2022-07-04T08:21:34;21.22;57.04
20862;DHT22;10591;52.532;13.348;2022-07-04T08:24:07;21.16;57.14
20862;DHT22;10591;52.532;13.348;2022-07-04T08:26:39;21.26;57.56
20862;DHT22;10591;52.532;13.348;2022-07-04T08:29:10;21.30;57.72
20862;DHT22;10591;52.532;13.348;2022-07-04T08:31:40;21.69;56.06
20862;DHT22;10591;52.532;13.348;2022-07-04T08:34:13;21.85;55.41
20862;DHT22;10591;52.532;13.348;2022-07-04T08:36:43;21.78;55.12
20862;DHT22;10591;52.532;13.348;2022-07-04T08:39:14;21.96;54.78
20862;DHT22;10591;52.532;13.348;2022-07-04T08:41:46;22.09;54.30
20862;DHT22;10591;52.532;13.348;2022-07-04T08:44:20;22.36;54.18
20862;DHT22;10591;52.532;13.348;2022-07-04T08:46:53;22.18;54.31
20862;DHT22;10591;52.532;13.348;2022-07-04T08:49:27;22.62;54.09
20862;DHT22;10591;52.532;13.348;2022-07-04T08:52:06;22.59;54.28
20862;DHT22;10591;52.532;13.348;2022-07-04T08:54:40;22.62;54.56
20862;DHT22;10591;52.532;13.348;2022-07-04T08:57:30;22.64;54.75
20862;DHT22;10591;52.532;13.348;2022-07-04T09:00:19;22.48;55.10
20862;DHT22;10591;52.532;13.348;2022-07-04T09:02:52;22.02;55.46
20862;DHT22;10591;52.532;13.348;2022-07-04T09:05:24;21.80;56.27
20862;DHT22;10591;52.532;13.348;2022-07-04T09:07:56;22.01;56.57
20862;DHT22;10591;52.532;13.348;2022-07-04T09:10:28;22.03;56.55
20862;DHT22;10591;52.532;13.348;2022-07-04T09:13:01;21.92;57.05
20862;DHT22;10591;52.532;13.348;2022-07-04T09:15:34;22.10;56.53
20862;DHT22;10591;52.532;13.348;2022-07-04T09:18:06;22.11;56.19
20862;DHT22;10591;52.532;13.348;2022-07-04T09:20:38;22.40;55.08
20862;DHT22;10591;52.532;13.348;2022-07-04T09:23:17;22.27;55.47
20862;DHT22;10591;52.532;13.348;2022-07-04T09:26:06;22.15;54.74
20862;DHT22;10591;52.532;13.348;2022-07-04T09:28:28;22.80;54.08
20862;DHT22;10591;52.532;13.348;2022-07-04T09:31:00;22.19;53.87
20862;DHT22;10591;52.532;13.348;2022-07-04T09:33:52;22.04;54.10
20862;DHT22;10591;52.532;13.348;2022-07-04T09:36:25;22.62;53.11
20862;DHT22;10591;52.532;13.348;2022-07-04T09:39:16;22.76;51.91
20862;DHT22;10591;52.532;13.348;2022-07-04T09:42:02;22.80;51.51
20862;DHT22;10591;52.532;13.348;2022-07-04T09:44:44;22.73;50.77
20862;DHT22;10591;52.532;13.348;2022-07-04T09:47:23;22.82;50.33
20862;DHT22;10591;52.532;13.348;2022-07-04T09:55:27;22.51;49.43
20862;DHT22;10591;52.532;13.348;2022-07-04T09:58:06;22.76;49.91
20862;DHT22;10591;52.532;13.348;2022-07-04T10:00:39;22.85;50.34
20862;DHT22;10591;52.532;13.348;2022-07-04T10:03:22;23.45;49.61
20862;DHT22;10591;52.532;13.348;2022-07-04T10:06:09;23.64;48.67
20862;DHT22;10591;52.532;13.348;2022-07-04T10:08:41;23.61;48.28
20862;DHT22;10591;52.532;13.348;2022-07-04T10:11:12;23.62;48.89
20862;DHT22;10591;52.532;13.348;2022-07-04T10:13:45;23.26;47.62
20862;DHT22;10591;52.532;13.348;2022-07-04T10:16:16;23.18;48.09
20862;DHT22;10591;52.532;13.348;2022-07-04T10:18:47;22.72;48.81
20862;DHT22;10591;52.532;13.348;2022-07-04T10:21:18;23.38;48.25
20862;DHT22;10591;52.532;13.348;2022-07-04T10:23:50;23.93;46.37
20862;DHT22;10591;52.532;13.348;2022-07-04T10:26:23;24.51;45.52
20862;DHT22;10591;52.532;13.348;2022-07-04T10:28:54;24.98;44.78
20862;DHT22;10591;52.532;13.348;2022-07-04T10:31:28;24.66;44.81
20862;DHT22;10591;52.532;13.348;2022-07-04T10:33:59;24.31;46.35
20862;DHT22;10591;52.532;13.348;2022-07-04T10:36:34;24.05;47.17
20862;DHT22;10591;52.532;13.348;2022-07-04T10:39:04;24.02;46.73
20862;DHT22;10591;52.532;13.348;2022-07-04T10:41:35;24.06;46.12
20862;DHT22;10591;52.532;13.348;2022-07-04T10:44:07;23.01;48.33
20862;DHT22;10591;52.532;13.348;2022-07-04T10:46:52;23.38;47.99
20862;DHT22;10591;52.532;13.348;2022-07-04T10:49:27;23.53;48.53
20862;DHT22;10591;52.532;13.348;2022-07-04T10:52:14;23.98;46.86
20862;DHT22;10591;52.532;13.348;2022-07-04T10:54:45;24.18;46.98
20862;DHT22;10591;52.532;13.348;2022-07-04T10:57:18;23.70;48.09
20862;DHT22;10591;52.532;13.348;2022-07-04T11:02:34;23.69;48.29
20862;DHT22;10591;52.532;13.348;2022-07-04T11:10:18;23.16;50.22
20862;DHT22;10591;52.532;13.348;2022-07-04T11:18:11;23.64;48.19
20862;DHT22;10591;52.532;13.348;2022-07-04T11:20:44;24.09;48.08
20862;DHT22;10591;52.532;13.348;2022-07-04T11:23:18;23.73;48.78
20862;DHT22;10591;52.532;13.348;2022-07-04T11:25:50;24.58;47.30
20862;DHT22;10591;52.532;13.348;2022-07-04T11:28:24;25.01;47.06
20862;DHT22;10591;52.532;13.348;2022-07-04T11:31:00;25.18;45.83
20862;DHT22;10591;52.532;13.348;2022-07-04T11:33:33;24.81;44.89
20862;DHT22;10591;52.532;13.348;2022-07-04T11:36:16;25.18;45.27
20862;DHT22;10591;52.532;13.348;2022-07-04T11:38:54;24.85;45.49
20862;DHT22;10591;52.532;13.348;2022-07-04T11:41:32;24.27;46.28
20862;DHT22;10591;52.532;13.348;2022-07-04T11:44:26;24.10;46.19
20862;DHT22;10591;52.532;13.348;2022-07-04T11:47:17;23.80;46.74
20862;DHT22;10591;52.532;13.348;2022-07-04T11:52:28;24.34;47.75
20862;DHT22;10591;52.532;13.348;2022-07-04T11:54:57;24.56;47.62
20862;DHT22;10591;52.532;13.348;2022-07-04T11:57:32;24.34;46.65
20862;DHT22;10591;52.532;13.348;2022-07-04T12:00:09;23.82;46.97
20862;DHT22;10591;52.532;13.348;2022-07-04T12:02:48;23.54;47.46
20862;DHT22;10591;52.532;13.348;2022-07-04T12:05:19;23.45;48.29
20862;DHT22;10591;52.532;13.348;2022-07-04T12:07:50;23.38;47.34
20862;DHT22;10591;52.532;13.348;2022-07-04T12:10:24;23.24;47.81
20862;DHT22;10591;52.532;13.348;2022-07-04T12:13:10;23.41;47.35
20862;DHT22;10591;52.532;13.348;2022-07-04T12:15:42;23.90;45.97
20862;DHT22;10591;52.532;13.348;2022-07-04T12:18:21;24.36;44.71
20862;DHT22;10591;52.532;13.348;2022-07-04T12:20:52;24.58;44.40
20862;DHT22;10591;52.532;13.348;2022-07-04T12:23:25;24.96;45.70
20862;DHT22;10591;52.532;13.348;2022-07-04T12:25:57;24.62;44.01
20862;DHT22;10591;52.532;13.348;2022-07-04T12:28:34;24.84;44.60
20862;DHT22;10591;52.532;13.348;2022-07-04T12:31:05;24.22;45.09
20862;DHT22;10591;52.532;13.348;2022-07-04T12:33:38;23.70;45.95
20862;DHT22;10591;52.532;13.348;2022-07-04T12:36:08;23.61;46.20
20862;DHT22;10591;52.532;13.348;2022-07-04T12:38:39;23.55;45.96
20862;DHT22;10591;52.532;13.348;2022-07-04T12:41:14;24.25;44.01
20862;DHT22;10591;52.532;13.348;2022-07-04T12:43:49;24.19;44.53
20862;DHT22;10591;52.532;13.348;2022-07-04T12:46:32;24.29;43.61
20862;DHT22;10591;52.532;13.348;2022-07-04T12:49:04;24.44;43.69
20862;DHT22;10591;52.532;13.348;2022-07-04T12:51:35;24.49;43.17
20862;DHT22;10591;52.532;13.348;2022-07-04T12:54:10;24.77;43.83
20862;DHT22;10591;52.532;13.348;2022-07-04T12:56:42;24.68;42.42
20862;DHT22;10591;52.532;13.348;2022-07-04T12:59:15;24.38;41.95
20862;DHT22;10591;52.532;13.348;2022-07-04T13:01:50;24.42;43.92
20862;DHT22;10591;52.532;13.348;2022-07-04T13:04:22;24.76;41.86
20862;DHT22;10591;52.532;13.348;2022-07-04T13:06:53;24.61;42.21
20862;DHT22;10591;52.532;13.348;2022-07-04T13:09:24;24.92;41.87
20862;DHT22;10591;52.532;13.348;2022-07-04T13:12:00;25.26;40.36
20862;DHT22;10591;52.532;13.348;2022-07-04T13:14:48;25.19;41.33
20862;DHT22;10591;52.532;13.348;2022-07-04T13:17:21;25.59;42.08
20862;DHT22;10591;52.532;13.348;2022-07-04T13:19:52;25.70;43.03
20862;DHT22;10591;52.532;13.348;2022-07-04T13:22:24;25.73;41.39
20862;DHT22;10591;52.532;13.348;2022-07-04T13:24:56;25.63;41.58
20862;DHT22;10591;52.532;13.348;2022-07-04T13:27:28;25.36;39.35
20862;DHT22;10591;52.532;13.348;2022-07-04T13:30:00;25.69;39.42
20862;DHT22;10591;52.532;13.348;2022-07-04T13:32:35;25.46;40.55
20862;DHT22;10591;52.532;13.348;2022-07-04T13:35:08;25.63;39.08
20862;DHT22;10591;52.532;13.348;2022-07-04T13:37:40;25.95;38.56
20862;DHT22;10591;52.532;13.348;2022-07-04T13:40:12;26.12;39.05
20862;DHT22;10591;52.532;13.348;2022-07-04T13:42:46;25.64;40.98
20862;DHT22;10591;52.532;13.348;2022-07-04T13:45:29;25.83;40.05
20862;DHT22;10591;52.532;13.348;2022-07-04T13:47:59;25.93;39.48
20862;DHT22;10591;52.532;13.348;2022-07-04T13:50:31;25.67;38.91
20862;DHT22;10591;52.532;13.348;2022-07-04T13:53:04;25.48;39.02
20862;DHT22;10591;52.532;13.348;2022-07-04T13:55:36;24.90;39.34
20862;DHT22;10591;52.532;13.348;2022-07-04T13:58:11;24.84;39.95
20862;DHT22;10591;52.532;13.348;2022-07-04T14:00:46;24.82;40.76
20862;DHT22;10591;52.532;13.348;2022-07-04T14:03:19;25.08;39.97
20862;DHT22;10591;52.532;13.348;2022-07-04T14:05:50;25.40;39.80
20862;DHT22;10591;52.532;13.348;2022-07-04T14:08:20;25.76;39.02
20862;DHT22;10591;52.532;13.348;2022-07-04T14:10:51;25.77;39.29
20862;DHT22;10591;52.532;13.348;2022-07-04T14:13:22;25.99;39.93
20862;DHT22;10591;52.532;13.348;2022-07-04T14:15:53;25.85;40.12
20862;DHT22;10591;52.532;13.348;2022-07-04T14:18:23;25.42;40.11
20862;DHT22;10591;52.532;13.348;2022-07-04T14:20:56;25.28;39.38
20862;DHT22;10591;52.532;13.348;2022-07-04T14:23:26;25.35;41.01
20862;DHT22;10591;52.532;13.348;2022-07-04T14:26:14;25.26;40.43
20862;DHT22;10591;52.532;13.348;2022-07-04T14:28:45;25.03;39.73
20862;DHT22;10591;52.532;13.348;2022-07-04T14:31:15;25.50;40.66
20862;DHT22;10591;52.532;13.348;2022-07-04T14:33:46;25.28;38.84
20862;DHT22;10591;52.532;13.348;2022-07-04T14:36:17;25.31;39.18
20862;DHT22;10591;52.532;13.348;2022-07-04T14:38:48;25.24;39.14
20862;DHT22;10591;52.532;13.348;2022-07-04T14:41:19;25.42;40.58
20862;DHT22;10591;52.532;13.348;2022-07-04T14:43:50;25.38;39.73
20862;DHT22;10591;52.532;13.348;2022-07-04T14:46:21;25.29;39.25
20862;DHT22;10591;52.532;13.348;2022-07-04T14:48:52;25.03;39.53
20862;DHT22;10591;52.532;13.348;2022-07-04T14:51:24;25.24;39.78
20862;DHT22;10591;52.532;13.348;2022-07-04T14:53:55;25.67;38.60
20862;DHT22;10591;52.532;13.348;2022-07-04T14:56:26;25.50;38.28
20862;DHT22;10591;52.532;13.348;2022-07-04T14:59:02;25.71;38.06
20862;DHT22;10591;52.532;13.348;2022-07-04T15:01:34;25.86;38.21
20862;DHT22;10591;52.532;13.348;2022-07-04T15:04:05;25.92;38.46
20862;DHT22;10591;52.532;13.348;2022-07-04T15:06:37;25.86;37.87
20862;DHT22;10591;52.532;13.348;2022-07-04T15:09:07;26.19;38.17
20862;DHT22;10591;52.532;13.348;2022-07-04T15:11:38;25.90;37.32
20862;DHT22;10591;52.532;13.348;2022-07-04T15:14:09;26.47;37.13
20862;DHT22;10591;52.532;13.348;2022-07-04T15:16:39;26.31;37.37
20862;DHT22;10591;52.532;13.348;2022-07-04T15:19:10;26.09;37.03
20862;DHT22;10591;52.532;13.348;2022-07-04T15:21:42;26.39;37.40
20862;DHT22;10591;52.532;13.348;2022-07-04T15:24:31;26.30;37.26
20862;DHT22;10591;52.532;13.348;2022-07-04T15:27:03;26.00;36.82
20862;DHT22;10591;52.532;13.348;2022-07-04T15:29:36;26.15;37.62
20862;DHT22;10591;52.532;13.348;2022-07-04T15:32:07;26.44;37.24
20862;DHT22;10591;52.532;13.348;2022-07-04T15:34:39;26.07;37.03
20862;DHT22;10591;52.532;13.348;2022-07-04T15:37:11;25.34;38.29
20862;DHT22;10591;52.532;13.348;2022-07-04T15:39:42;25.34;38.26
20862;DHT22;10591;52.532;13.348;2022-07-04T15:42:34;24.90;38.73
20862;DHT22;10591;52.532;13.348;2022-07-04T15:45:20;24.85;39.20
20862;DHT22;10591;52.532;13.348;2022-07-04T15:47:51;25.06;38.61
20862;DHT22;10591;52.532;13.348;2022-07-04T15:50:24;25.08;38.54
20862;DHT22;10591;52.532;13.348;2022-07-04T15:52:56;24.84;38.66
20862;DHT22;10591;52.532;13.348;2022-07-04T15:55:27;24.95;38.19
20862;DHT22;10591;52.532;13.348;2022-07-04T15:57:58;25.09;38.34
20862;DHT22;10591;52.532;13.348;2022-07-04T16:00:29;24.88;38.04
20862;DHT22;10591;52.532;13.348;2022-07-04T16:03:00;24.59;38.83
20862;DHT22;10591;52.532;13.348;2022-07-04T16:05:31;24.44;39.12
20862;DHT22;10591;52.532;13.348;2022-07-04T16:08:01;24.63;38.97
20862;DHT22;10591;52.532;13.348;2022-07-04T16:10:32;24.41;39.63